Terminal Aerodrome Forecast
Issued by NWS Bismarck, ND

Home | Current Version | Previous Version | Text Only | Print | Product List | Glossary Off
Versions: 1 2 3 4 5 6 7 8 9 10 11 12

045
FTUS43 KBIS 271457 AAB
TAFBIS
TAF AMD
KBIS 271457Z 2715/2812 03010KT P6SM SCT035
      TEMPO 2715/2717 BKN035
     FM271800 02008KT P6SM FEW200
     FM280500 04004KT P6SM SKC=

USA.gov is the U.S. government's official web portal to all federal, state and local government web resources and services.